createdAt,value
2023-02-11T00:05:46.158Z,11.65
2023-02-11T00:20:48.044Z,11.20
2023-02-11T00:35:50.535Z,12.10
2023-02-11T00:50:53.367Z,11.80
2023-02-11T01:05:55.538Z,11.07
2023-02-11T01:20:57.756Z,11.15
2023-02-11T01:36:03.696Z,11.18
2023-02-11T01:51:14.855Z,10.73
2023-02-11T05:43:30.962Z,9.68
2023-02-11T05:58:33.237Z,10.55
2023-02-11T06:13:35.898Z,10.07
2023-02-11T06:28:40.719Z,10.13
2023-02-11T06:43:44.240Z,9.40
2023-02-11T06:58:46.384Z,9.63
2023-02-11T07:13:48.374Z,10.50
2023-02-11T07:28:50.545Z,11.25
2023-02-11T07:43:53.836Z,11.82
2023-02-11T07:58:57.085Z,12.85
2023-02-11T08:13:59.132Z,12.75
2023-02-11T08:29:01.751Z,12.82
2023-02-11T08:44:06.186Z,11.23
2023-02-11T08:59:09.411Z,30.58
2023-02-11T09:14:21.806Z,20.25
2023-02-11T09:29:23.697Z,25.20
2023-02-11T09:44:27.497Z,24.23
2023-02-11T09:59:29.403Z,18.50
2023-02-11T10:14:49.788Z,17.95
2023-02-11T10:29:57.258Z,13.93
2023-02-11T10:45:04.072Z,13.18
2023-02-11T11:00:27.737Z,17.02
2023-02-11T11:15:30.829Z,11.82
2023-02-11T11:30:41.401Z,12.20
2023-02-11T11:45:59.856Z,17.27
2023-02-11T12:01:16.542Z,10.98
2023-02-11T12:16:55.412Z,10.60
2023-02-11T12:32:18.080Z,10.55
2023-02-11T12:47:23.952Z,10.02
2023-02-11T13:02:34.032Z,10.23
2023-02-11T13:18:08.136Z,10.27
2023-02-11T13:33:16.230Z,10.43
2023-02-11T13:48:27.263Z,10.80
2023-02-11T14:03:52.533Z,21.92
2023-02-11T14:18:54.611Z,16.80
2023-02-11T14:34:22.599Z,15.05
2023-02-11T14:49:25.366Z,13.77
2023-02-11T15:04:28.786Z,26.95
2023-02-11T15:19:36.211Z,18.55
2023-02-11T15:34:38.123Z,15.43
2023-02-11T15:49:42.447Z,13.40
2023-02-11T16:04:52.167Z,12.63
2023-02-11T16:19:54.249Z,11.65
2023-02-11T16:35:06.731Z,11.98
2023-02-11T16:50:09.746Z,11.88
2023-02-11T17:05:21.349Z,12.13
2023-02-11T17:20:23.347Z,10.70
2023-02-11T17:35:25.558Z,10.52
2023-02-11T17:50:29.337Z,10.48
2023-02-11T18:05:37.884Z,9.52
2023-02-11T18:20:42.833Z,10.50
2023-02-11T18:35:51.177Z,9.57
2023-02-11T18:50:54.340Z,8.88
2023-02-11T19:05:56.238Z,9.00
2023-02-11T19:20:58.432Z,8.07
2023-02-11T19:36:08.464Z,8.52
2023-02-11T19:51:15.244Z,9.00
2023-02-11T20:06:27.416Z,8.50
2023-02-11T20:21:31.190Z,7.65
2023-02-11T20:36:35.688Z,7.60
2023-02-11T20:51:37.810Z,7.30
2023-02-11T21:06:44.530Z,7.10
2023-02-11T21:21:46.456Z,6.55
2023-02-11T21:36:51.086Z,6.60
2023-02-11T21:51:53.015Z,6.13
2023-02-11T22:06:58.658Z,6.78
2023-02-11T22:22:04.095Z,6.20
2023-02-11T22:37:07.817Z,5.75
2023-02-11T22:52:10.129Z,5.97
2023-02-11T23:07:15.170Z,6.28
2023-02-11T23:22:17.095Z,5.75
2023-02-11T23:37:20.182Z,6.10
2023-02-11T23:52:25.102Z,5.93
